Latest Weather Observations for Kingfish B

IDV60801

Issued at 8:32 pm EST Friday 18 August 2017 (issued every 30 minutes, with the page automatically refreshed every 10 minutes)

About weather observations | Map of weather stations | Latest weather observations for VIC | Other Formats
Station Details ID: 400139 Name: KINGFISH B (PLATFORM) Lat: -38.60 Lon: 148.19 Height: 31.4 m
Data from the previous 72 hours. | See also: Recent months for locations in Victoria
Date/Time
EST
Temp
°C
App
Temp
°C
Dew
Point
°C
Rel
Hum
%
Delta-T
°C
Wind Press
QNH
hPa
Press
MSL
hPa
Rain since
9am
mm
Dir  Spd
km/h
Gust
km/h
Spd
kts
Gust
kts
18/07:20pm 10.4 0.4 4.4 66 2.7 SW 46 67 25 36 1011.3 - -
18/07:10pm 10.2 -0.3 3.8 64 2.8 WSW 48 59 26 32 1011.1 - -
18/07:00pm 10.7 -3.0 3.6 61 3.1 SW 65 85 35 46 1012.2 - -
18/06:50pm 11.7 -1.3 3.7 58 3.6 WSW 61 82 33 44 1010.5 - -
18/06:40pm 11.8 -0.8 3.7 57 3.6 SW 59 76 32 41 1010.4 - -
18/06:30pm 11.9 -0.4 3.4 56 3.8 SW 57 65 31 35 1010.5 - -
18/06:20pm 11.9 -0.9 2.7 53 4.0 SW 59 70 32 38 1010.8 - -
18/06:10pm 11.9 -1.8 3.8 57 3.6 SW 65 74 35 40 1010.9 - -
18/06:00pm 12.0 -0.4 4.5 60 3.4 SW 59 69 32 37 1010.1 - -
18/05:50pm 11.9 0.0 4.4 60 3.4 SW 56 67 30 36 1010.1 - -
18/05:40pm 11.9 -0.2 4.4 60 3.4 SW 57 69 31 37 1010.3 - -
18/05:30pm 11.9 -0.5 4.4 60 3.4 SW 59 70 32 38 1010.4 - -
18/05:20pm 11.9 -0.9 4.4 60 3.4 SW 61 70 33 38 1009.8 - -
18/05:10pm 11.9 -0.5 4.8 62 3.2 SW 59 70 32 38 1009.5 - -
18/05:00pm 11.9 -0.9 4.6 61 3.3 SW 61 70 33 38 1009.4 - -
18/04:50pm 12.0 -0.8 4.5 60 3.4 SW 61 76 33 41 1009.1 - -
18/04:40pm 12.0 -0.8 4.6 60 3.4 SW 61 72 33 39 1008.9 - -
18/04:30pm 12.0 -0.3 5.2 63 3.1 SW 59 72 32 39 1008.8 - -
18/04:20pm 12.0 0.2 5.7 65 2.9 SW 57 69 31 37 1008.6 - -
18/04:10pm 11.9 0.1 5.8 66 2.8 SW 57 70 31 38 1008.0 - -
18/04:00pm 11.7 -0.5 5.7 66 2.8 SW 59 70 32 38 1007.4 - -
18/03:50pm 11.7 -0.4 5.9 67 2.7 SW 59 76 32 41 1007.3 - -
18/03:40pm 11.7 -0.7 6.4 70 2.5 SW 61 76 33 41 1007.3 - -
18/03:30pm 11.8 0.2 6.7 71 2.4 WSW 57 72 31 39 1006.4 - -
18/03:20pm 11.6 -0.8 6.6 71 2.4 WSW 61 78 33 42 1006.0 - -
18/03:10pm 11.0 -0.8 5.8 70 2.4 WSW 57 76 31 41 1006.3 - -
18/03:00pm 11.5 -1.6 6.6 72 2.3 WSW 65 91 35 49 1005.7 - -
18/02:50pm 11.4 -1.0 6.3 71 2.4 W 61 70 33 38 1005.5 - -
18/02:40pm 11.4 -1.4 6.3 71 2.4 W 63 78 34 42 1005.4 - -
18/02:30pm 11.4 -0.7 6.3 71 2.4 W 59 76 32 41 1005.5 - -
18/02:20pm 11.4 -2.2 6.2 70 2.4 W 67 82 36 44 1005.1 - -
18/02:10pm 11.2 -2.0 6.3 72 2.3 W 65 78 35 42 1005.0 - -
18/02:00pm 11.2 -1.7 6.1 71 2.4 W 63 76 34 41 1004.9 - -
18/01:50pm 11.2 -2.0 6.1 71 2.4 W 65 74 35 40 1004.8 - -
18/01:40pm 11.2 -2.4 6.0 70 2.4 W 67 76 36 41 1004.6 - -
18/01:30pm 11.2 -2.0 6.3 72 2.3 W 65 78 35 42 1004.4 - -
18/01:20pm 10.9 -2.3 6.1 72 2.2 W 65 76 35 41 1004.4 - -
18/01:10pm 10.8 -2.1 5.9 72 2.3 W 63 74 34 40 1004.4 - -
18/01:00pm 11.2 -1.7 5.9 70 2.5 W 63 76 34 41 1004.4 - -
18/12:50pm 11.5 -1.0 6.1 69 2.5 W 61 76 33 41 1004.0 - -
18/12:40pm 11.2 -0.6 5.8 69 2.5 W 57 70 31 38 1004.1 - -
18/12:30pm 11.2 -1.7 6.1 71 2.4 W 63 76 34 41 1004.0 - -
18/12:20pm 11.3 -1.2 6.1 70 2.4 W 61 72 33 39 1004.2 - -
18/12:10pm 11.3 -0.2 6.2 71 2.4 W 56 63 30 34 1004.2 - -
18/12:00pm 10.9 0.1 5.9 71 2.3 W 52 61 28 33 1004.3 - -
18/11:50am 10.8 -1.1 5.4 69 2.5 W 57 65 31 35 1004.3 - -
18/11:40am 11.1 -1.5 5.6 69 2.5 W 61 69 33 37 1004.2 - -
18/11:30am 11.5 -0.8 5.3 65 2.9 W 59 69 32 37 1004.1 - -
18/11:20am 11.6 -0.4 4.8 63 3.1 W 57 69 31 37 1003.9 - -
18/11:10am 11.5 -1.2 4.9 64 3.0 W 61 69 33 37 1003.6 - -
18/11:00am 11.6 -0.2 5.7 67 2.7 W 57 65 31 35 1003.6 - -
18/10:50am 11.5 -0.7 5.8 68 2.7 W 59 70 32 38 1003.5 - -
18/10:40am 11.2 -1.4 5.7 69 2.5 W 61 70 33 38 1003.6 - -
18/10:30am 11.0 -1.6 5.6 69 2.5 W 61 70 33 38 1003.9 - -
18/10:20am 11.1 -0.8 5.4 68 2.6 W 57 72 31 39 1003.9 - -
18/10:10am 11.0 -1.3 5.2 67 2.7 W 59 70 32 38 1003.9 - -
18/10:00am 10.8 -0.9 5.3 69 2.5 W 56 67 30 36 1003.7 - -
18/09:50am 10.6 -1.3 5.1 69 2.5 W 57 70 31 38 1003.7 - -
18/09:40am 10.5 -1.5 5.0 69 2.5 W 57 69 31 37 1003.7 - -
18/09:30am 10.4 -2.0 4.8 68 2.5 W 59 69 32 37 1003.7 - -
18/09:20am 10.5 -1.9 4.8 68 2.6 W 59 70 32 38 1003.4 - -
18/09:10am 10.5 -2.3 4.7 67 2.6 W 61 72 33 39 1003.2 - -
18/09:00am 10.5 -2.6 4.9 68 2.5 W 63 74 34 40 1003.0 - -
18/08:50am 10.5 -2.2 4.9 68 2.5 W 61 72 33 39 1003.2 - -
18/08:40am 10.4 -4.0 4.9 69 2.5 W 70 82 38 44 1002.8 - -
18/08:30am 10.3 -3.5 5.2 70 2.3 W 67 80 36 43 1002.7 - -
18/08:20am 10.2 -3.7 4.8 69 2.4 W 67 74 36 40 1002.7 - -
18/08:10am 10.4 -3.4 5.1 69 2.4 W 67 82 36 44 1002.5 - -
18/08:00am 10.1 -4.3 5.2 71 2.2 W 70 85 38 46 1002.3 - -
18/07:50am 9.0 -1.4 4.3 72 2.1 WSW 48 78 26 42 1003.3 - -
18/07:40am 9.2 -1.6 4.1 70 2.2 SW 50 67 27 36 1003.8 - -
18/07:30am 10.0 -2.0 4.0 66 2.6 SW 56 74 30 40 1003.3 - -
18/07:20am 11.0 -2.8 5.1 67 2.7 W 67 82 36 44 1002.1 - -
18/07:10am 10.6 -3.2 5.1 69 2.5 W 67 80 36 43 1001.8 - -
18/07:00am 10.5 -3.3 5.3 70 2.4 W 67 76 36 41 1001.8 - -
18/06:50am 10.5 -1.7 5.5 71 2.3 W 59 70 32 38 1001.8 - -
18/06:40am 10.2 -2.1 5.3 71 2.2 W 59 70 32 38 1001.6 - -
18/06:30am 9.9 -2.4 5.2 72 2.1 W 59 70 32 38 1001.5 - -
18/06:20am 10.1 -2.9 5.5 73 2.1 W 63 80 34 43 1001.4 - -
18/06:10am 9.8 -1.1 5.4 74 2.0 W 52 63 28 34 1001.6 - -
18/06:00am 9.7 -1.2 5.3 74 2.0 W 52 63 28 34 1001.3 - -
18/05:50am 9.5 -2.3 5.0 73 2.0 WSW 56 67 30 36 1001.0 - -
18/05:40am 9.2 -2.6 4.7 73 2.0 WSW 56 65 30 35 1000.9 - -
18/05:30am 9.3 -3.1 4.5 72 2.1 WSW 59 72 32 39 1001.0 - -
18/05:20am 9.6 -3.6 4.7 71 2.2 WSW 63 74 34 40 1001.0 - -
18/05:10am 9.6 -2.3 4.5 70 2.3 WSW 56 63 30 34 1000.9 - -
18/05:00am 9.9 -2.1 4.6 69 2.4 WSW 57 67 31 36 1001.1 - -
18/04:50am 10.6 -2.2 4.5 66 2.7 WSW 61 72 33 39 1000.9 - -
18/04:40am 11.5 -1.8 4.0 60 3.4 W 63 76 34 41 1000.3 - -
18/04:30am 11.5 -1.0 4.2 61 3.3 W 59 76 32 41 1000.4 - -
18/04:20am 11.5 -0.4 4.2 61 3.3 W 56 69 30 37 1000.4 - -
18/04:10am 11.5 -0.6 4.3 61 3.2 W 57 69 31 37 1000.4 - -
18/04:00am 11.5 -0.6 4.1 60 3.3 W 57 72 31 39 1000.3 - -
18/03:50am 11.5 -1.4 4.2 61 3.3 W 61 76 33 41 1000.2 - -
18/03:40am 11.5 -1.0 4.3 61 3.2 W 59 69 32 37 1000.2 - -
18/03:30am 11.5 -0.6 4.4 61 3.2 W 57 67 31 36 1000.2 - -
18/03:20am 11.5 -0.5 4.6 62 3.1 W 57 67 31 36 1000.1 - -
18/03:10am 11.4 -0.7 4.4 62 3.2 W 57 69 31 37 1000.3 - -
18/03:00am 11.4 -1.8 4.4 62 3.2 W 63 72 34 39 1000.0 - -
18/02:40am 11.4 -1.8 4.5 62 3.1 W 63 69 34 37 999.9 - -
18/02:30am 11.4 -1.0 4.7 63 3.0 W 59 70 32 38 999.9 - -
18/02:20am 11.4 -1.0 4.6 63 3.1 W 59 72 32 39 999.8 - -
18/02:10am 11.4 -0.6 4.7 63 3.0 W 57 69 31 37 999.8 - -
18/02:00am 11.3 -1.9 4.4 62 3.1 W 63 72 34 39 999.6 - -
18/01:50am 11.5 -0.9 4.7 63 3.1 W 59 74 32 40 999.7 - -
18/01:40am 11.3 -1.5 4.8 64 3.0 W 61 72 33 39 999.7 - -
18/01:30am 11.2 -0.1 5.2 66 2.7 W 54 63 29 34 999.9 - -
18/01:20am 10.9 0.0 5.5 69 2.5 W 52 63 28 34 1000.0 - -
18/01:10am 11.0 1.2 5.5 69 2.5 W 46 54 25 29 1000.2 - -
18/01:00am 11.0 0.5 5.4 68 2.6 W 50 59 27 32 1000.2 - -
18/12:50am 10.8 1.0 5.3 69 2.5 W 46 56 25 30 1000.1 - -
18/12:30am 10.8 -0.2 5.1 68 2.6 WSW 52 63 28 34 999.8 - -
18/12:20am 11.3 -1.8 5.1 65 2.8 W 63 78 34 42 999.7 - -
18/12:00am 11.6 -1.5 5.0 64 3.0 W 63 74 34 40 1000.2 - -
 
Date/Time
EST
Temp
°C
App
Temp
°C
Dew
Point
°C
Rel
Hum
%
Delta-T
°C
Wind Press
QNH
hPa
Press
MSL
hPa
Rain since
9am
mm
Dir  Spd
km/h
Gust
km/h
Spd
kts
Gust
kts
17/11:50pm 11.7 -1.4 5.0 63 3.1 W 63 78 34 42 1000.2 - -
17/11:40pm 11.7 -1.4 5.0 63 3.1 W 63 72 34 39 1000.3 - -
17/11:30pm 11.7 -1.0 5.0 63 3.1 W 61 74 33 40 1000.3 - -
17/11:20pm 11.8 -1.7 5.1 63 3.1 W 65 76 35 41 1000.3 - -
17/11:10pm 11.9 -0.8 5.3 64 3.0 W 61 74 33 40 1000.3 - -
17/11:00pm 11.7 -0.9 5.5 66 2.9 W 61 74 33 40 1000.4 - -
17/10:50pm 11.7 -1.0 5.3 65 3.0 W 61 72 33 39 1000.3 - -
17/10:40pm 11.7 -1.3 5.4 65 2.9 W 63 76 34 41 1000.3 - -
17/10:30pm 11.7 -0.6 5.3 65 3.0 W 59 70 32 38 1000.4 - -
17/10:20pm 11.7 -1.4 5.2 64 3.0 WNW 63 74 34 40 1000.3 - -
17/10:10pm 11.7 -0.9 5.4 65 2.9 WNW 61 74 33 40 1000.3 - -
17/10:00pm 11.7 -0.2 5.4 65 2.9 W 57 70 31 38 1000.4 - -
17/09:50pm 11.8 -1.2 5.4 65 3.0 W 63 72 34 39 1000.3 - -
17/09:40pm 11.8 -1.9 5.5 65 2.9 WNW 67 78 36 42 1000.2 - -
17/09:30pm 11.9 -1.8 5.8 66 2.8 WNW 67 76 36 41 1000.1 - -
17/09:20pm 11.9 -0.2 6.1 67 2.7 WNW 59 69 32 37 1000.3 - -
17/09:10pm 11.8 0.1 6.0 67 2.7 WNW 57 70 31 38 1000.3 - -
17/09:00pm 11.9 0.2 6.2 68 2.7 WNW 57 69 31 37 1000.3 - -
17/08:50pm 11.9 0.3 6.5 69 2.6 WNW 57 70 31 38 1000.2 - -
17/08:40pm 11.7 2.2 6.6 71 2.4 WNW 46 63 25 34 1000.5 - -
17/08:30pm 11.6 2.6 6.5 71 2.4 WNW 43 48 23 26 1000.7 - -
17/08:20pm 11.5 2.3 6.4 71 2.4 WNW 44 48 24 26 1000.7 - -
17/08:10pm 11.6 2.6 6.4 70 2.5 W 43 48 23 26 1000.7 - -
17/08:00pm 11.6 1.7 6.5 71 2.4 W 48 54 26 29 1000.7 - -
17/07:50pm 11.5 1.6 6.5 71 2.4 W 48 57 26 31 1000.7 - -
17/07:40pm 11.4 2.4 6.5 72 2.3 W 43 50 23 27 1000.9 - -
17/07:30pm 11.3 2.7 6.4 72 2.3 W 41 48 22 26 1001.0 - -
17/07:20pm 11.3 2.1 6.4 72 2.3 W 44 50 24 27 1001.0 - -
17/07:10pm 11.2 2.6 6.3 72 2.3 W 41 48 22 26 1000.9 - -
17/07:00pm 11.1 1.8 6.1 71 2.3 W 44 54 24 29 1001.0 - -
17/06:50pm 10.7 0.6 5.8 72 2.3 W 48 67 26 36 1000.6 - -
17/06:40pm 10.4 -1.2 5.6 72 2.2 WSW 56 74 30 40 1000.7 - -
17/06:30pm 9.9 -4.0 4.6 69 2.4 WSW 67 83 36 45 1000.6 - -
17/06:20pm 11.4 -2.9 5.7 68 2.6 WSW 70 100 38 54 1000.6 - -
17/06:10pm 12.5 5.5 6.9 68 2.7 WSW 33 43 18 23 1000.5 - -
17/06:00pm 12.5 5.7 6.9 68 2.7 W 32 35 17 19 1000.3 - -
17/05:50pm 12.4 5.4 6.8 68 2.7 W 33 37 18 20 1000.1 - -
17/05:40pm 12.3 4.9 6.6 68 2.7 W 35 43 19 23 999.9 - -
17/05:30pm 12.1 4.2 6.3 67 2.7 WSW 37 43 20 23 999.8 - -
17/05:20pm 12.1 4.2 6.2 67 2.8 WSW 37 43 20 23 999.6 - -
17/05:10pm 12.1 3.8 6.0 66 2.9 W 39 44 21 24 999.5 - -
17/05:00pm 12.2 3.1 5.9 65 3.0 WSW 43 50 23 27 999.3 - -
17/04:50pm 12.3 3.0 6.1 66 2.9 W 44 52 24 28 999.3 - -
17/04:40pm 12.1 3.0 6.0 66 2.9 W 43 52 23 28 999.2 - -
17/04:30pm 12.0 3.3 6.1 67 2.8 W 41 48 22 26 998.9 - -
17/04:20pm 11.8 3.5 6.2 68 2.6 WSW 39 46 21 25 998.8 - -
17/04:10pm 11.5 2.8 6.1 69 2.5 WSW 41 50 22 27 998.8 - -
17/04:00pm 11.3 2.0 5.9 69 2.5 WSW 44 54 24 29 998.7 - -
17/03:50pm 11.3 2.0 6.0 70 2.5 WSW 44 52 24 28 998.9 - -
17/03:40pm 11.8 2.2 6.4 69 2.6 WSW 46 57 25 31 998.9 - -
17/03:30pm 11.9 0.4 6.4 69 2.6 WSW 56 70 30 38 998.8 - -
17/03:20pm 11.9 0.8 6.3 68 2.6 WSW 54 61 29 33 998.6 - -
17/03:10pm 11.9 1.6 6.3 68 2.6 WSW 50 61 27 33 998.4 - -
17/03:00pm 11.9 0.8 6.2 68 2.7 WSW 54 63 29 34 998.5 - -
17/02:50pm 11.8 0.2 6.0 67 2.7 WSW 56 65 30 35 998.4 - -
17/02:40pm 12.1 0.9 6.1 67 2.8 WSW 54 65 29 35 998.4 - -
17/02:30pm 12.9 1.4 6.4 64 3.1 WSW 56 76 30 41 998.3 - -
17/02:20pm 13.3 2.7 7.0 65 3.1 W 52 61 28 33 998.1 - -
17/02:10pm 13.2 3.8 7.0 66 3.0 WNW 46 56 25 30 998.2 - -
17/02:00pm 13.1 2.4 6.6 64 3.1 WNW 52 59 28 32 998.1 - -
17/01:50pm 13.0 2.7 6.7 65 3.0 WNW 50 61 27 33 998.1 - -
17/01:40pm 12.9 1.5 6.5 65 3.1 WNW 56 67 30 36 998.4 - -
17/01:30pm 12.9 1.8 6.3 64 3.1 WNW 54 67 29 36 998.5 - -
17/01:20pm 13.0 1.3 6.0 62 3.3 W 57 69 31 37 998.3 - -
17/01:10pm 13.1 1.9 5.8 61 3.4 WNW 54 65 29 35 998.2 - -
17/01:00pm 13.1 2.0 6.2 63 3.3 WNW 54 65 29 35 998.2 - -
17/12:50pm 12.9 1.7 6.0 63 3.3 W 54 61 29 33 998.1 - -
17/12:40pm 12.8 2.1 6.5 65 3.0 WNW 52 67 28 36 998.1 - -
17/12:30pm 12.5 2.9 6.4 66 2.9 WNW 46 54 25 29 998.1 - -
17/12:20pm 12.3 2.8 6.6 68 2.7 W 46 56 25 30 998.1 - -
17/12:10pm 12.2 2.8 7.0 70 2.5 WNW 46 56 25 30 998.2 - -
17/12:00pm 12.0 2.9 7.0 71 2.4 WNW 44 56 24 30 998.4 - -
17/11:50am 11.8 2.7 6.8 71 2.4 WNW 44 54 24 29 998.6 - -
17/11:40am 11.8 1.2 6.8 71 2.4 WNW 52 65 28 35 998.8 - -
17/11:30am 11.9 1.3 6.7 70 2.5 WNW 52 67 28 36 998.9 - -
17/11:20am 11.8 1.5 6.4 69 2.6 WNW 50 59 27 32 998.9 - -
17/11:10am 11.9 1.2 6.3 68 2.6 WNW 52 59 28 32 999.0 - -
17/11:00am 12.2 0.5 6.4 67 2.8 WNW 57 67 31 36 999.1 - -
17/10:50am 12.3 0.7 6.5 67 2.8 WNW 57 67 31 36 999.2 - -
17/10:40am 12.5 0.9 6.7 68 2.8 WNW 57 69 31 37 999.3 - -
17/10:30am 12.7 1.7 6.7 67 2.9 WNW 54 65 29 35 999.3 - -
17/10:20am 12.9 1.5 6.9 67 2.9 WNW 56 69 30 37 999.3 - -
17/10:10am 12.5 1.5 6.7 68 2.8 WNW 54 63 29 34 999.5 - -
17/10:00am 12.9 1.2 6.4 64 3.1 WNW 57 65 31 35 999.5 - -
17/09:50am 13.6 1.8 5.5 58 3.8 WNW 57 70 31 38 999.5 - -
17/09:40am 13.8 2.2 5.7 58 3.8 WNW 56 70 30 38 999.5 - -
17/09:30am 13.8 2.8 5.1 55 4.1 WNW 52 63 28 34 999.6 - -
17/09:20am 13.8 1.8 3.8 51 4.5 WNW 56 76 30 41 999.5 - -
17/09:10am 14.0 0.8 4.7 53 4.3 WNW 63 78 34 42 999.5 - -
17/09:00am 14.0 2.6 5.1 55 4.2 WNW 54 69 29 37 999.7 - -
17/08:50am 14.6 4.7 6.7 59 3.8 WNW 48 76 26 41 999.8 - -
17/08:40am 14.8 6.7 7.2 60 3.7 WNW 39 46 21 25 999.8 - -
17/08:30am 14.8 5.9 7.0 59 3.8 WNW 43 50 23 27 999.8 - -
17/08:20am 14.9 6.0 6.9 58 3.9 WNW 43 52 23 28 999.7 - -
17/08:10am 14.9 6.4 7.1 59 3.8 WNW 41 50 22 27 999.7 - -
17/08:00am 14.9 5.8 6.9 58 3.9 WNW 44 52 24 28 999.7 - -
17/07:50am 14.8 5.3 6.7 58 3.9 WNW 46 54 25 29 999.7 - -
17/07:40am 14.8 5.3 6.7 58 3.9 WNW 46 54 25 29 999.7 - -
17/07:30am 14.7 4.8 6.6 58 3.9 WNW 48 57 26 31 999.5 - -
17/07:20am 14.6 4.8 7.0 60 3.7 WNW 48 57 26 31 999.5 - -
17/07:10am 14.5 5.7 7.3 62 3.5 WNW 43 54 23 29 999.7 - -
17/07:00am 14.3 5.3 7.3 63 3.4 WNW 44 50 24 27 999.7 - -
17/06:50am 14.1 5.4 7.6 65 3.2 WNW 43 50 23 27 999.7 - -
17/06:40am 14.0 5.3 7.6 65 3.2 WNW 43 52 23 28 999.7 - -
17/06:30am 13.8 5.4 7.5 66 3.1 WNW 41 48 22 26 999.6 - -
17/06:20am 13.7 4.4 7.4 65 3.1 WNW 46 56 25 30 999.5 - -
17/06:10am 13.7 3.6 7.3 65 3.1 WNW 50 61 27 33 999.4 - -
17/06:00am 13.7 3.6 7.4 65 3.1 WNW 50 59 27 32 999.2 - -
17/05:50am 13.7 3.2 7.4 65 3.1 WNW 52 61 28 33 999.1 - -
17/05:40am 13.8 3.3 7.4 65 3.1 WNW 52 63 28 34 999.1 - -
17/05:30am 13.8 3.4 7.6 66 3.1 WNW 52 61 28 33 998.9 - -
17/05:20am 13.9 2.7 7.4 65 3.2 WNW 56 67 30 36 998.8 - -
17/05:10am 13.8 2.4 7.6 66 3.1 WNW 57 70 31 38 998.7 - -
17/05:00am 13.6 3.2 7.7 67 2.9 WNW 52 65 28 35 998.8 - -
17/04:50am 13.6 3.5 7.6 67 3.0 WNW 50 59 27 32 998.8 - -
17/04:40am 13.6 3.9 7.7 67 2.9 WNW 48 57 26 31 998.7 - -
17/04:30am 13.5 3.4 7.4 66 3.0 WNW 50 59 27 32 998.7 - -
17/04:20am 13.5 3.0 7.3 66 3.0 WNW 52 63 28 34 998.6 - -
17/04:10am 13.6 3.1 7.2 65 3.1 WNW 52 63 28 34 998.7 - -
17/04:00am 13.7 2.8 7.2 65 3.2 WNW 54 63 29 34 998.8 - -
17/03:50am 13.6 2.3 7.2 65 3.1 WNW 56 67 30 36 998.6 - -
17/03:40am 13.6 2.3 7.3 65 3.1 WNW 56 70 30 38 998.6 - -
17/03:30am 13.8 3.4 7.8 67 3.0 WNW 52 69 28 37 998.7 - -
17/03:20am 13.8 5.1 8.3 69 2.7 WNW 44 52 24 28 998.8 - -
17/03:10am 13.4 5.6 8.2 71 2.6 WNW 39 46 21 25 998.9 - -
17/03:00am 13.2 5.0 8.1 71 2.5 WNW 41 50 22 27 999.0 - -
17/02:50am 13.1 5.6 8.1 71 2.5 W 37 46 20 25 999.1 - -
17/02:40am 13.1 6.6 8.1 71 2.5 W 32 43 17 23 999.1 - -
17/02:30am 13.0 5.5 8.0 71 2.5 W 37 44 20 24 999.2 - -
17/02:20am 13.1 3.9 7.8 70 2.6 W 46 54 25 29 999.1 - -
17/02:10am 13.3 1.5 7.5 68 2.8 W 59 69 32 37 998.8 - -
17/02:00am 13.5 3.0 7.3 66 3.0 W 52 65 28 35 998.8 - -
17/01:50am 14.1 4.4 7.6 65 3.2 W 48 67 26 36 999.1 - -
17/01:40am 14.7 6.7 7.6 62 3.5 WNW 39 46 21 25 999.0 - -
17/01:30am 14.9 6.4 7.1 59 3.8 WNW 41 48 22 26 999.0 - -
17/01:20am 14.8 5.8 7.1 60 3.8 WNW 44 56 24 30 999.0 - -
17/01:10am 14.8 6.0 7.1 60 3.8 WNW 43 50 23 27 999.2 - -
17/01:00am 14.9 5.5 7.1 59 3.8 WNW 46 54 25 29 999.2 - -
17/12:50am 15.0 6.1 7.5 61 3.7 WNW 44 52 24 28 999.2 - -
17/12:40am 14.9 5.5 7.3 60 3.7 WNW 46 56 25 30 999.2 - -
17/12:30am 15.0 6.2 7.4 60 3.8 WNW 43 52 23 28 999.4 - -
17/12:20am 14.9 7.0 7.8 62 3.5 WNW 39 50 21 27 999.5 - -
17/12:10am 14.8 6.9 7.8 63 3.5 NW 39 46 21 25 999.5 - -
17/12:00am 14.7 6.3 7.5 62 3.6 WNW 41 48 22 26 999.5 - -
 
Date/Time
EST
Temp
°C
App
Temp
°C
Dew
Point
°C
Rel
Hum
%
Delta-T
°C
Wind Press
QNH
hPa
Press
MSL
hPa
Rain since
9am
mm
Dir  Spd
km/h
Gust
km/h
Spd
kts
Gust
kts
16/11:50pm 14.6 5.6 7.2 61 3.6 WNW 44 50 24 27 999.6 - -
16/11:40pm 14.5 5.1 7.1 61 3.6 WNW 46 56 25 30 999.7 - -
16/11:30pm 14.5 4.3 6.9 60 3.7 WNW 50 57 27 31 999.6 - -
16/11:20pm 14.8 5.0 7.1 60 3.8 WNW 48 59 26 32 999.7 - -
16/11:10pm 14.9 5.1 7.2 60 3.8 WNW 48 56 26 30 999.7 - -
16/11:00pm 14.7 5.0 7.3 61 3.6 WNW 48 59 26 32 999.7 - -
16/10:50pm 14.8 5.5 7.4 61 3.7 WNW 46 56 25 30 999.8 - -
16/10:40pm 14.8 5.5 7.4 61 3.7 WNW 46 54 25 29 999.8 - -
16/10:30pm 14.8 5.4 7.2 60 3.7 WNW 46 56 25 30 999.8 - -
16/10:20pm 14.7 5.7 7.4 61 3.6 NW 44 54 24 29 999.9 - -
16/10:10pm 14.7 6.7 7.6 62 3.5 WNW 39 48 21 26 1000.0 - -
16/10:00pm 14.7 6.3 7.4 61 3.6 WNW 41 46 22 25 1000.0 - -
16/09:50pm 14.7 5.7 7.1 60 3.7 WNW 44 54 24 29 1000.0 - -
16/09:40pm 14.8 5.8 7.2 60 3.7 WNW 44 52 24 28 999.9 - -
16/09:30pm 14.8 5.7 7.0 59 3.8 WNW 44 52 24 28 999.8 - -
16/09:20pm 14.8 5.3 6.8 58 3.9 WNW 46 56 25 30 999.8 - -
16/09:10pm 14.7 4.8 6.7 58 3.9 WNW 48 59 26 32 999.9 - -
16/09:00pm 14.7 5.3 7.1 60 3.7 WNW 46 57 25 31 1000.0 - -
16/08:50pm 14.6 5.2 7.3 61 3.6 WNW 46 52 25 28 1000.0 - -
16/08:40pm 14.5 5.1 7.2 61 3.6 WNW 46 57 25 31 1000.0 - -
16/08:30pm 14.4 4.7 7.3 62 3.5 WNW 48 57 26 31 1000.1 - -
16/08:20pm 14.3 5.9 7.4 63 3.4 WNW 41 50 22 27 1000.1 - -
16/08:10pm 14.4 5.1 7.4 63 3.4 WNW 46 56 25 30 999.9 - -
16/08:00pm 14.3 5.3 7.4 63 3.4 WNW 44 52 24 28 999.8 - -
16/07:50pm 14.3 5.6 7.6 64 3.3 WNW 43 48 23 26 999.8 - -
16/07:40pm 14.3 5.4 7.7 64 3.3 WNW 44 52 24 28 999.7 - -
16/07:30pm 14.1 4.7 7.3 63 3.3 WNW 46 52 25 28 999.7 - -
16/07:20pm 14.2 4.4 7.0 62 3.5 WNW 48 56 26 30 999.5 - -
16/07:10pm 14.3 4.2 7.3 63 3.4 WNW 50 57 27 31 999.5 - -
16/07:00pm 14.1 3.9 7.1 62 3.4 WNW 50 57 27 31 999.4 - -
16/06:50pm 14.1 3.9 7.1 62 3.4 WNW 50 56 27 30 999.3 - -
16/06:40pm 13.9 4.2 7.3 64 3.2 WNW 48 56 26 30 999.2 - -
16/06:30pm 13.9 5.2 7.7 66 3.1 WNW 43 52 23 28 999.2 - -
16/06:20pm 13.7 4.9 7.4 65 3.1 WNW 43 50 23 27 999.2 - -
16/06:10pm 13.7 5.0 7.5 66 3.0 WNW 43 50 23 27 999.2 - -
16/06:00pm 13.7 5.0 7.5 66 3.0 WNW 43 54 23 29 999.2 - -
16/05:50pm 13.7 5.7 7.4 65 3.1 WNW 39 44 21 24 999.0 - -
16/05:40pm 13.7 5.6 7.2 65 3.2 W 39 46 21 25 998.9 - -
16/05:30pm 13.7 4.6 7.0 64 3.3 W 44 52 24 28 998.7 - -
16/05:20pm 13.7 3.9 6.9 63 3.3 W 48 56 26 30 998.5 - -
16/05:10pm 13.7 3.9 6.9 63 3.3 W 48 56 26 30 998.3 - -
16/05:00pm 13.7 3.8 6.8 63 3.3 W 48 57 26 31 998.2 - -
16/04:50pm 13.8 3.6 6.8 62 3.4 W 50 59 27 32 998.1 - -
16/04:40pm 13.8 2.8 7.0 63 3.3 W 54 67 29 36 998.0 - -
16/04:30pm 13.8 3.7 7.2 64 3.2 W 50 59 27 32 997.9 - -
16/04:20pm 14.0 3.0 7.0 62 3.4 W 54 63 29 34 997.5 - -
16/04:10pm 14.1 2.2 6.9 62 3.5 W 59 70 32 38 997.4 - -
16/04:00pm 14.0 2.1 7.0 62 3.4 WNW 59 74 32 40 997.1 - -
16/03:50pm 14.0 2.4 6.7 61 3.5 W 57 69 31 37 996.9 - -
16/03:40pm 14.2 1.4 6.5 60 3.7 W 63 74 34 40 996.6 - -
16/03:30pm 14.3 1.5 6.2 58 3.9 W 63 78 34 42 996.4 - -
16/03:20pm 14.3 2.8 6.1 58 3.9 W 56 69 30 37 996.2 - -
16/03:10pm 14.2 3.0 6.1 58 3.9 W 54 65 29 35 996.0 - -
16/03:00pm 14.1 2.0 6.1 58 3.8 W 59 72 32 39 995.7 - -
16/02:50pm 14.2 -0.9 5.3 55 4.2 W 74 95 40 51 995.2 - -
16/02:40pm 14.5 -1.4 3.1 46 5.1 W 76 102 41 55 995.1 - -
16/02:30pm 14.4 -1.4 5.5 55 4.2 W 78 104 42 56 995.0 - -
16/02:20pm 14.2 -0.3 6.4 59 3.8 W 72 93 39 50 995.1 - -
16/02:10pm 14.5 0.1 6.7 59 3.8 WSW 72 95 39 51 995.0 - -
16/02:00pm 15.0 2.1 6.1 55 4.3 W 63 82 34 44 995.0 - -
16/01:50pm 15.0 2.5 6.2 55 4.2 W 61 74 33 40 994.9 - -
16/01:40pm 14.9 2.1 6.4 57 4.1 W 63 74 34 40 994.7 - -
16/01:30pm 14.8 2.7 6.3 56 4.1 W 59 72 32 39 994.6 - -
16/01:20pm 14.8 2.7 6.1 56 4.2 W 59 69 32 37 994.5 - -
16/01:10pm 14.8 3.1 6.0 55 4.2 W 57 70 31 38 994.3 - -
16/01:00pm 14.8 2.3 6.0 55 4.2 W 61 72 33 39 994.1 - -
16/12:50pm 14.8 2.7 6.0 55 4.2 W 59 70 32 38 994.0 - -
16/12:40pm 15.0 2.9 6.1 55 4.3 W 59 69 32 37 993.9 - -
16/12:30pm 14.6 2.1 6.0 56 4.1 W 61 74 33 40 993.7 - -
16/12:20pm 14.5 2.4 6.3 58 3.9 W 59 74 32 40 993.7 - -
16/12:10pm 14.5 2.8 6.4 58 3.9 W 57 69 31 37 993.7 - -
16/12:00pm 14.5 2.4 6.3 58 3.9 W 59 72 32 39 993.7 - -
16/11:50am 14.5 2.1 6.3 58 3.9 W 61 74 33 40 993.6 - -
16/11:40am 14.5 1.7 6.2 57 4.0 W 63 76 34 41 993.5 - -
16/11:30am 14.4 0.8 6.1 57 4.0 W 67 82 36 44 993.5 - -
16/11:20am 14.4 0.2 6.0 57 4.0 W 70 85 38 46 993.4 - -
16/11:10am 14.5 -0.1 6.1 57 4.0 W 72 87 39 47 993.4 - -
16/11:00am 14.5 0.5 6.3 58 3.9 W 69 85 37 46 993.3 - -
16/10:50am 14.6 1.4 6.3 57 4.0 W 65 80 35 43 993.3 - -
16/10:40am 14.6 1.4 6.4 58 4.0 W 65 78 35 42 993.4 - -
16/10:30am 14.6 1.4 6.5 58 3.9 W 65 74 35 40 993.3 - -
16/10:20am 14.6 0.6 6.2 57 4.0 W 69 82 37 44 993.2 - -
16/10:10am 14.6 0.0 6.0 56 4.1 W 72 93 39 50 993.0 - -
16/10:00am 14.6 0.4 5.9 56 4.2 W 70 87 38 47 993.1 - -
16/09:50am 14.9 0.7 6.2 56 4.2 W 70 85 38 46 992.9 - -
16/09:40am 14.8 0.6 6.0 55 4.2 W 70 87 38 47 992.8 - -
16/09:30am 14.9 -0.1 6.1 55 4.2 W 74 93 40 50 992.6 - -
16/09:20am 14.8 -0.5 6.1 56 4.2 W 76 96 41 52 992.4 - -
16/09:10am 14.9 -0.8 6.1 55 4.2 W 78 95 42 51 992.3 - -
16/09:00am 15.1 -0.2 6.2 55 4.3 W 76 93 41 50 992.4 - -
16/08:50am 15.2 0.0 6.6 56 4.2 WNW 76 102 41 55 992.2 - -
16/08:40am 15.3 2.7 7.2 58 4.0 WNW 63 76 34 41 992.3 - -
16/08:30am 15.4 3.5 7.1 57 4.1 WNW 59 72 32 39 992.1 - -
16/08:20am 15.4 3.6 7.3 58 4.0 WNW 59 67 32 36 992.1 - -
16/08:10am 15.4 2.5 7.5 59 3.9 WNW 65 78 35 42 991.9 - -
16/08:00am 15.5 3.9 8.2 62 3.7 WNW 59 72 32 39 992.1 - -
16/07:50am 15.4 4.8 8.6 64 3.5 WNW 54 67 29 36 992.2 - -
16/07:40am 15.3 5.1 8.6 64 3.4 WNW 52 61 28 33 992.2 - -
16/07:30am 15.2 4.9 8.3 63 3.5 WNW 52 65 28 35 992.3 - -
16/07:20am 15.1 5.8 9.3 68 3.0 WNW 48 61 26 33 992.3 - -
16/07:10am 14.9 8.2 9.6 70 2.7 NW 35 44 19 24 992.3 - -
16/07:00am 14.9 8.8 9.7 71 2.7 WNW 32 41 17 22 992.1 - -
16/06:50am 14.2 7.8 9.2 72 2.6 WNW 33 41 18 22 991.9 - -
16/06:40am 13.6 6.7 8.7 72 2.5 WNW 35 41 19 22 991.8 - -
16/06:30am 13.2 5.8 8.4 72 2.4 WNW 37 43 20 23 991.9 - -
16/06:20am 12.9 5.9 8.4 74 2.2 WNW 35 44 19 24 991.9 - -
16/06:10am 12.7 4.9 8.4 75 2.1 WNW 39 48 21 26 991.8 - -
16/06:00am 12.3 4.5 8.4 77 1.9 WNW 39 46 21 25 991.7 - -
16/05:50am 12.3 3.2 8.5 77 1.9 W 46 59 25 32 991.9 - -
16/05:40am 12.4 2.3 8.9 79 1.8 W 52 61 28 33 992.2 - -
16/05:30am 12.2 3.6 9.0 81 1.6 W 44 65 24 35 992.0 - -
16/05:20am 13.1 7.9 10.2 82 1.5 WSW 28 80 15 43 992.1 - -
16/05:10am 13.4 11.2 10.8 84 1.4 WNW 13 17 7 9 991.7 - -
16/05:00am 12.9 10.6 10.5 85 1.2 WNW 13 17 7 9 991.8 - -
16/04:50am 12.4 10.4 10.2 86 1.1 W 11 17 6 9 991.8 - -
16/04:40am 12.5 10.6 10.4 87 1.1 W 11 20 6 11 991.9 - -
16/04:30am 12.4 10.9 10.4 88 1.0 W 9 19 5 10 991.9 - -
16/04:20am 12.2 10.3 10.4 89 0.9 W 11 20 6 11 991.7 - -
16/04:10am 12.3 11.2 10.6 89 0.9 W 7 13 4 7 991.7 - -
16/04:00am 12.0 10.1 10.4 90 0.8 NNW 11 19 6 10 991.7 - -
16/03:50am 11.9 10.4 10.4 90 0.8 N 9 13 5 7 991.7 - -
16/03:40am 11.5 10.2 10.1 91 0.7 N 7 11 4 6 991.6 - -
16/03:30am 11.2 11.2 9.8 91 0.7 CALM 0 6 0 3 991.3 - -
16/03:20am 11.0 10.9 9.6 91 0.7 CALM 0 2 0 1 991.6 - -
16/03:10am 11.1 11.0 9.6 90 0.8 CALM 0 4 0 2 991.5 - -
16/03:00am 11.1 11.1 9.7 91 0.7 CALM 0 4 0 2 992.1 - -
16/02:50am 10.9 10.5 9.6 92 0.7 SSW 2 6 1 3 992.3 - -
16/02:40am 10.9 9.7 9.6 92 0.7 SSW 6 9 3 5 992.5 - -
16/02:30am 10.9 8.8 9.6 92 0.7 SSW 11 17 6 9 992.6 - -
16/02:20am 10.8 7.9 9.6 92 0.6 S 15 19 8 10 992.3 - -
16/02:10am 10.9 7.6 9.6 92 0.7 SSW 17 22 9 12 993.2 - -
16/02:00am 11.0 7.4 9.8 92 0.6 SSW 19 22 10 12 993.4 - -
16/01:50am 11.0 6.4 9.8 92 0.6 SSW 24 32 13 17 993.4 - -
16/01:40am 11.1 5.8 9.8 92 0.7 SSW 28 35 15 19 993.9 - -
16/01:30am 11.0 4.7 9.7 92 0.7 SSW 33 41 18 22 994.4 - -
16/01:20am 11.4 3.2 9.6 89 0.9 SSW 43 59 23 32 994.5 - -
16/01:10am 13.4 6.4 11.3 87 1.1 WSW 39 52 21 28 993.3 - -
16/01:00am 13.5 5.8 11.4 87 1.1 WSW 43 52 23 28 993.0 - -
16/12:50am 13.5 6.5 11.3 86 1.2 W 39 54 21 29 993.6 - -
16/12:40am 13.6 5.8 11.3 86 1.2 W 43 56 23 30 994.0 - -
16/12:30am 13.6 5.3 11.3 86 1.2 W 46 56 25 30 994.0 - -
16/12:20am 13.7 5.0 11.4 86 1.2 W 48 65 26 35 994.2 - -
16/12:10am 13.8 5.9 11.6 86 1.2 W 44 67 24 36 994.2 - -
16/12:00am 13.9 6.7 11.8 87 1.1 W 41 46 22 25 994.3 - -
 
Date/Time
EST
Temp
°C
App
Temp
°C
Dew
Point
°C
Rel
Hum
%
Delta-T
°C
Wind Press
QNH
hPa
Press
MSL
hPa
Rain since
9am
mm
Dir  Spd
km/h
Gust
km/h
Spd
kts
Gust
kts
15/11:50pm 14.0 6.8 12.0 88 1.1 W 41 52 22 28 994.6 - -
15/11:40pm 14.2 6.5 12.2 88 1.1 W 44 52 24 28 994.5 - -
15/11:30pm 14.0 8.5 11.9 87 1.1 W 32 52 17 28 994.6 - -
15/11:20pm 13.7 10.0 11.6 87 1.1 WSW 22 28 12 15 994.4 - -
15/11:10pm 13.8 11.4 11.5 86 1.2 W 15 17 8 9 994.5 - -
15/11:00pm 14.1 11.4 11.8 86 1.2 W 17 19 9 10 994.9 - -
15/10:50pm 14.3 11.6 11.8 85 1.3 W 17 22 9 12 995.1 - -
15/10:40pm 14.3 11.1 11.8 85 1.3 W 20 26 11 14 995.6 - -
15/10:30pm 14.3 11.2 11.7 84 1.4 WSW 19 26 10 14 995.8 - -
15/10:20pm 14.3 11.0 11.5 83 1.5 WSW 20 26 11 14 995.9 - -
15/10:10pm 14.4 11.1 11.5 83 1.6 SW 20 24 11 13 996.1 - -
15/10:00pm 14.5 10.8 11.5 82 1.6 SW 22 30 12 16 996.3 - -
15/09:50pm 14.6 10.9 11.4 81 1.7 SW 22 26 12 14 996.4 - -
15/09:40pm 14.9 11.2 11.4 79 1.9 SW 22 28 12 15 996.3 - -
15/09:30pm 15.4 10.5 11.4 77 2.1 SW 28 37 15 20 996.3 - -
15/09:20pm 16.0 9.1 11.5 74 2.4 WSW 39 48 21 26 996.2 - -
15/09:10pm 16.1 8.4 11.4 73 2.5 WSW 43 50 23 27 996.2 - -
15/09:00pm 16.5 9.9 11.4 72 2.8 W 37 43 20 23 996.3 - -
15/08:50pm 16.6 11.1 11.7 73 2.7 WNW 32 35 17 19 996.0 - -
15/08:40pm 16.2 11.4 11.5 73 2.5 NW 28 33 15 18 995.9 - -

Other Formats:

Comma delimited format used in spreadsheet applications
http://www.bom.gov.au/fwo/IDV60801/IDV60801.55039.axf

JavaScript Object Notation format (JSON) in row-major order
http://www.bom.gov.au/fwo/IDV60801/IDV60801.55039.json